createdAt,value
2024-01-15T00:03:42.422Z,130.2375
2024-01-15T00:08:44.570Z,97.835
2024-01-15T00:13:45.972Z,67.57175
2024-01-15T00:18:47.484Z,46.474
2024-01-15T00:23:48.999Z,28.06885
2024-01-15T00:28:50.596Z,15.2885
2024-01-15T00:33:52.384Z,8.13295
2024-01-15T00:38:53.958Z,5.20745
2024-01-15T00:43:55.736Z,0.4148
2024-01-15T00:48:57.571Z,1.16185
2024-01-15T00:53:59.311Z,0.88715
2024-01-15T00:59:01.334Z,0
2024-01-15T01:04:04.761Z,0
2024-01-15T01:09:06.613Z,0
2024-01-15T01:14:10.578Z,0
2024-01-15T01:19:12.288Z,0
2024-01-15T01:24:14.162Z,0
2024-01-15T01:29:18.566Z,0
2024-01-15T01:34:20.135Z,0
2024-01-15T01:39:23.507Z,0
2024-01-15T01:44:25.256Z,0
2024-01-15T01:49:30.281Z,0
2024-01-15T01:54:32.859Z,0
2024-01-15T01:59:34.558Z,0
2024-01-15T02:04:38.143Z,0
2024-01-15T02:09:41.429Z,0
2024-01-15T02:14:43.133Z,0
2024-01-15T02:19:45.844Z,0
2024-01-15T02:24:48.540Z,0
2024-01-15T02:29:50.348Z,0
2024-01-15T02:34:52.286Z,0
2024-01-15T02:39:54.230Z,0
2024-01-15T02:44:56.149Z,0
2024-01-15T02:49:58.085Z,0
2024-01-15T02:55:00.363Z,0
2024-01-15T03:00:02.611Z,0
2024-01-15T03:05:04.282Z,0
2024-01-15T03:10:05.831Z,0
2024-01-15T03:15:07.707Z,0
2024-01-15T03:20:09.313Z,0
2024-01-15T03:25:10.876Z,0
2024-01-15T03:30:12.469Z,0
2024-01-15T03:35:14.006Z,0
2024-01-15T03:40:16.645Z,0
2024-01-15T03:45:19.548Z,0
2024-01-15T03:50:21.214Z,0
2024-01-15T03:55:22.632Z,0
2024-01-15T04:00:24.155Z,0
2024-01-15T04:05:25.556Z,0
2024-01-15T04:10:26.959Z,0
2024-01-15T04:15:28.565Z,0
2024-01-15T04:20:29.965Z,0
2024-01-15T04:25:31.367Z,0
2024-01-15T04:30:32.915Z,0
2024-01-15T04:35:34.468Z,0
2024-01-15T04:40:36.127Z,0
2024-01-15T04:45:37.644Z,0
2024-01-15T04:50:39.174Z,0
2024-01-15T04:55:40.691Z,0
2024-01-15T05:00:42.367Z,0
2024-01-15T05:05:43.929Z,0
2024-01-15T05:10:45.376Z,0
2024-01-15T05:15:47.190Z,0
2024-01-15T05:20:48.750Z,0
2024-01-15T05:25:50.263Z,0
2024-01-15T05:30:51.903Z,0
2024-01-15T05:35:53.669Z,0
2024-01-15T05:40:55.071Z,0
2024-01-15T05:45:56.545Z,0
2024-01-15T05:50:58.005Z,0
2024-01-15T05:55:59.485Z,0
2024-01-15T06:01:01.137Z,0
2024-01-15T06:06:02.912Z,0
2024-01-15T06:11:04.666Z,0
2024-01-15T06:16:07.387Z,0
2024-01-15T06:21:09.088Z,0
2024-01-15T06:26:10.501Z,0
2024-01-15T06:31:12.202Z,0
2024-01-15T06:36:13.749Z,0
2024-01-15T06:41:15.385Z,0
2024-01-15T06:46:16.788Z,0
2024-01-15T06:51:18.281Z,0
2024-01-15T06:56:19.739Z,0
2024-01-15T07:01:21.212Z,0
2024-01-15T07:06:22.771Z,0
2024-01-15T07:11:24.240Z,0
2024-01-15T07:16:36.022Z,0
2024-01-15T07:21:39.458Z,0
2024-01-15T07:26:41.111Z,0
2024-01-15T07:31:42.737Z,0
2024-01-15T07:36:44.262Z,0
2024-01-15T07:41:45.749Z,0
2024-01-15T07:46:47.489Z,0
2024-01-15T07:51:49.008Z,0
2024-01-15T07:56:50.656Z,0
2024-01-15T08:01:52.140Z,0
2024-01-15T08:06:53.575Z,0
2024-01-15T08:11:55.124Z,0
2024-01-15T08:16:56.741Z,0
2024-01-15T08:21:58.205Z,0
2024-01-15T08:26:59.872Z,0
2024-01-15T08:32:01.489Z,0
2024-01-15T08:37:03.244Z,0
2024-01-15T08:42:04.641Z,0
2024-01-15T08:47:06.290Z,0
2024-01-15T08:52:07.801Z,0
2024-01-15T08:57:09.273Z,0
2024-01-15T09:02:10.788Z,0
2024-01-15T09:07:12.361Z,0
2024-01-15T09:12:13.851Z,0
2024-01-15T09:17:15.372Z,0
2024-01-15T09:22:16.793Z,0
2024-01-15T09:27:18.194Z,0
2024-01-15T09:32:19.730Z,0
2024-01-15T09:37:32.373Z,0
2024-01-15T09:42:43.901Z,0
2024-01-15T09:47:46.545Z,0
2024-01-15T09:52:48.379Z,0
2024-01-15T09:57:49.929Z,0
2024-01-15T10:02:51.692Z,0
2024-01-15T10:07:53.429Z,0
2024-01-15T10:12:55.013Z,0
2024-01-15T10:17:56.708Z,0
2024-01-15T10:22:58.326Z,0
2024-01-15T10:27:59.903Z,0
2024-01-15T10:33:02.662Z,0
2024-01-15T10:38:04.300Z,0
2024-01-15T10:43:05.865Z,0
2024-01-15T10:48:07.420Z,0
2024-01-15T10:53:08.940Z,0
2024-01-15T10:58:10.335Z,0
2024-01-15T11:03:11.898Z,0
2024-01-15T11:08:13.525Z,0
2024-01-15T11:13:14.969Z,0
2024-01-15T11:18:16.503Z,0
2024-01-15T11:23:18.078Z,0
2024-01-15T11:28:19.539Z,0
2024-01-15T11:33:21.220Z,0
2024-01-15T11:38:22.793Z,0
2024-01-15T11:43:24.202Z,0
2024-01-15T11:48:25.619Z,0
2024-01-15T11:53:27.076Z,0
2024-01-15T11:58:28.570Z,0
2024-01-15T12:03:29.969Z,0
2024-01-15T12:08:31.449Z,0
2024-01-15T12:13:32.878Z,0
2024-01-15T12:18:34.444Z,0
2024-01-15T12:23:35.989Z,0
2024-01-15T12:28:37.386Z,0
2024-01-15T12:33:38.871Z,0
2024-01-15T12:38:40.346Z,0
2024-01-15T12:43:41.742Z,0
2024-01-15T12:48:43.309Z,0
2024-01-15T12:53:44.709Z,0
2024-01-15T12:58:46.096Z,0
2024-01-15T13:03:47.672Z,0
2024-01-15T13:08:49.346Z,0
2024-01-15T13:13:50.718Z,0
2024-01-15T13:18:52.311Z,0
2024-01-15T13:23:53.769Z,0
2024-01-15T13:28:55.249Z,0
2024-01-15T13:33:57.017Z,0
2024-01-15T13:38:58.508Z,0
2024-01-15T13:44:00.146Z,0
2024-01-15T13:49:01.913Z,0
2024-01-15T13:54:03.464Z,0
2024-01-15T13:59:04.878Z,0
2024-01-15T14:04:06.568Z,0
2024-01-15T14:09:08.077Z,0
2024-01-15T14:14:09.508Z,0
2024-01-15T14:19:11.366Z,0
2024-01-15T14:24:12.891Z,0
2024-01-15T14:29:14.409Z,0
2024-01-15T14:34:15.934Z,0
2024-01-15T14:39:17.458Z,0
2024-01-15T14:44:18.955Z,0
2024-01-15T14:49:20.459Z,0
2024-01-15T14:54:24.713Z,0
2024-01-15T14:59:26.579Z,0
2024-01-15T15:04:28.218Z,0
2024-01-15T15:09:29.898Z,0
2024-01-15T15:14:31.553Z,0.4148
2024-01-15T15:19:33.048Z,0.8296
2024-01-15T15:24:34.658Z,3.85445
2024-01-15T15:29:36.310Z,8.6863
2024-01-15T15:34:37.847Z,14.86445
2024-01-15T15:39:39.513Z,25.69
2024-01-15T15:44:40.948Z,41.3474
2024-01-15T15:49:42.640Z,60.12145
2024-01-15T15:54:44.319Z,84.33585
2024-01-15T15:59:45.947Z,109.54665
2024-01-15T16:04:47.471Z,139.3497
2024-01-15T16:09:49.062Z,168.7287
2024-01-15T16:14:50.580Z,201.24335
2024-01-15T16:23:27.605Z,245.2282
2024-01-15T16:29:06.307Z,307.58205
2024-01-15T16:34:09.849Z,319.9555
2024-01-15T16:39:13.253Z,348.4484
2024-01-15T16:44:14.890Z,395.3293
2024-01-15T16:49:19.589Z,441.9706
2024-01-15T16:54:21.526Z,434.0754
2024-01-15T16:59:29.543Z,422.05
2024-01-15T17:04:31.123Z,448.8277
2024-01-15T17:09:32.618Z,483.204
2024-01-15T17:14:34.053Z,550.0018
2024-01-15T17:19:35.625Z,619.2526
2024-01-15T17:24:37.034Z,660.4707
2024-01-15T17:29:38.409Z,752.53445
2024-01-15T17:34:39.917Z,913.85085
2024-01-15T17:39:41.365Z,849.7818
2024-01-15T17:44:42.886Z,638.6333
2024-01-15T17:49:44.397Z,720.90405
2024-01-15T17:54:45.810Z,1008.2916
2024-01-15T17:59:47.242Z,1126.43325
2024-01-15T18:04:48.719Z,1163.9262
2024-01-15T18:09:50.227Z,1206.54575
2024-01-15T18:14:51.630Z,1221.2809
2024-01-15T18:19:53.099Z,1263.2368
2024-01-15T18:24:54.487Z,1340.62055
2024-01-15T18:29:55.947Z,1461.4548
2024-01-15T18:34:57.620Z,1567.71935
2024-01-15T18:39:58.997Z,1746.4065
2024-01-15T18:45:00.491Z,1745.61355
2024-01-15T18:50:02.111Z,1747.4942
2024-01-15T18:55:03.636Z,1761.2158
2024-01-15T19:00:05.041Z,1659.59865
2024-01-15T19:05:06.554Z,1614.5261
2024-01-15T19:10:08.017Z,1554.36665
2024-01-15T19:15:09.579Z,1523.78965
2024-01-15T19:20:11.036Z,1488.3618
2024-01-15T19:25:12.665Z,1847.5273
2024-01-15T19:30:14.100Z,1973.96735
2024-01-15T19:35:15.846Z,2058.3602
2024-01-15T19:40:17.271Z,1822.24235
2024-01-15T19:45:18.696Z,2107.4165
2024-01-15T19:50:20.569Z,2605.8024
2024-01-15T19:55:22.027Z,2937.76615
2024-01-15T20:00:23.514Z,2845.97815
2024-01-15T20:05:25.106Z,2950.01215
2024-01-15T20:10:26.641Z,2845.2575
2024-01-15T20:15:28.211Z,3021.03145
2024-01-15T20:20:29.781Z,2892.1004
2024-01-15T20:25:31.205Z,2499.7223
2024-01-15T20:30:32.607Z,2485.33705
2024-01-15T20:35:34.175Z,2295.6932
2024-01-15T20:40:36.003Z,2277.2329
2024-01-15T20:45:37.568Z,2553.90335
2024-01-15T20:50:39.090Z,2864.17985
2024-01-15T20:55:40.510Z,2705.89065
2024-01-15T21:00:42.030Z,2793.7672
2024-01-15T21:05:43.644Z,2220.4677
2024-01-15T21:10:45.089Z,2075.8431
2024-01-15T21:15:46.571Z,1951.57845
2024-01-15T21:20:48.202Z,1708.6188
2024-01-15T21:25:49.625Z,1734.845
2024-01-15T21:30:50.996Z,1555.27175
2024-01-15T21:35:52.578Z,1414.64805
2024-01-15T21:40:54.064Z,1309.9694
2024-01-15T21:45:55.545Z,1234.30085
2024-01-15T21:50:56.924Z,1159.2408
2024-01-15T21:55:58.496Z,1061.1282
2024-01-15T22:01:00.162Z,984.4081
2024-01-15T22:06:01.787Z,962.20365
2024-01-15T22:11:03.301Z,912.40955
2024-01-15T22:16:04.731Z,876.31805
2024-01-15T22:21:06.173Z,835.524
2024-01-15T22:26:07.616Z,767.93325
2024-01-15T22:31:09.033Z,717.53065
2024-01-15T22:36:10.479Z,691.23215
2024-01-15T22:41:11.964Z,647.19215
2024-01-15T22:46:13.486Z,610.12325
2024-01-15T22:51:14.935Z,579.2325
2024-01-15T22:56:16.475Z,545.64915
2024-01-15T23:01:17.870Z,497.93915
2024-01-15T23:06:19.431Z,445.21285
2024-01-15T23:11:20.924Z,414.691
2024-01-15T23:16:22.402Z,372.79025
2024-01-15T23:21:24.128Z,326.79545
2024-01-15T23:26:25.578Z,291.6262
2024-01-15T23:31:27.000Z,264.16585
2024-01-15T23:36:28.838Z,235.17475
2024-01-15T23:41:30.356Z,206.42325
2024-01-15T23:46:31.800Z,173.9466
2024-01-15T23:51:33.525Z,141.70955
2024-01-15T23:56:35.072Z,112.7736
